createdAt,value
2017-04-23T00:00:28.437Z,0
2017-04-23T00:01:08.921Z,0
2017-04-23T00:01:49.399Z,0
2017-04-23T00:02:29.936Z,0
2017-04-23T00:03:10.406Z,0
2017-04-23T00:03:51.078Z,0
2017-04-23T00:04:31.566Z,0
2017-04-23T00:05:12.086Z,0
2017-04-23T00:05:52.621Z,0
2017-04-23T00:06:33.062Z,0
2017-04-23T00:07:13.557Z,0
2017-04-23T00:07:54.024Z,0
2017-04-23T00:08:34.534Z,0
2017-04-23T00:09:14.995Z,0
2017-04-23T00:09:55.441Z,0
2017-04-23T00:10:35.937Z,0
2017-04-23T00:11:16.464Z,0
2017-04-23T00:11:56.921Z,0
2017-04-23T00:12:37.426Z,0
2017-04-23T00:13:17.902Z,0
2017-04-23T00:13:58.382Z,0
2017-04-23T00:14:38.883Z,0
2017-04-23T00:15:19.373Z,0
2017-04-23T00:15:59.896Z,0
2017-04-23T00:16:40.354Z,0
2017-04-23T00:17:20.843Z,0
2017-04-23T00:18:01.533Z,0
2017-04-23T00:18:42.048Z,0
2017-04-23T00:19:22.536Z,0
2017-04-23T00:20:03.031Z,0
2017-04-23T00:20:43.521Z,0
2017-04-23T00:21:24.036Z,0
2017-04-23T00:22:04.575Z,0
2017-04-23T00:22:45.030Z,0
2017-04-23T00:23:25.533Z,0
2017-04-23T00:24:06.127Z,0
2017-04-23T00:24:46.606Z,0
2017-04-23T00:25:27.081Z,0
2017-04-23T00:26:07.587Z,0
2017-04-23T00:26:48.079Z,0
2017-04-23T00:27:28.671Z,0
2017-04-23T00:28:09.175Z,0
2017-04-23T00:28:49.660Z,0
2017-04-23T00:29:30.181Z,0
2017-04-23T00:30:10.713Z,0
2017-04-23T00:30:51.179Z,0
2017-04-23T00:31:31.645Z,0
2017-04-23T00:32:12.141Z,0
2017-04-23T00:32:52.633Z,0
2017-04-23T00:33:33.154Z,0
2017-04-23T00:34:13.630Z,0
2017-04-23T00:34:54.094Z,0
2017-04-23T00:35:34.585Z,0
2017-04-23T00:36:15.043Z,0
2017-04-23T00:36:55.602Z,0
2017-04-23T00:37:36.026Z,0
2017-04-23T00:38:16.564Z,0
2017-04-23T00:38:57.041Z,0
2017-04-23T00:39:37.548Z,0
2017-04-23T00:40:18.004Z,0
2017-04-23T00:40:58.485Z,0
2017-04-23T00:41:38.987Z,0
2017-04-23T00:42:19.492Z,0
2017-04-23T00:42:59.992Z,0
2017-04-23T00:43:40.488Z,0
2017-04-23T00:44:20.985Z,0
2017-04-23T00:45:01.467Z,0
2017-04-23T00:45:41.973Z,0
2017-04-23T00:46:22.473Z,0
2017-04-23T00:47:03.005Z,0
2017-04-23T00:47:43.469Z,0
2017-04-23T00:48:23.967Z,0
2017-04-23T00:49:04.490Z,0
2017-04-23T00:49:44.952Z,0
2017-04-23T00:50:25.480Z,0
2017-04-23T00:52:38.684Z,0
2017-04-23T00:53:19.186Z,0
2017-04-23T00:53:59.691Z,0
2017-04-23T00:54:40.186Z,0
2017-04-23T00:55:20.696Z,0
2017-04-23T00:56:01.220Z,0
2017-04-23T00:56:41.709Z,0
2017-04-23T00:57:22.210Z,0
2017-04-23T00:58:02.693Z,0
2017-04-23T00:58:43.203Z,0
2017-04-23T00:59:23.736Z,0
2017-04-23T01:00:04.165Z,0
2017-04-23T01:00:44.672Z,0
2017-04-23T01:01:25.170Z,0
2017-04-23T01:02:05.634Z,0
2017-04-23T01:02:46.135Z,0
2017-04-23T01:03:26.652Z,0
2017-04-23T01:04:07.124Z,0
2017-04-23T01:04:47.645Z,0
2017-04-23T01:05:28.148Z,0
2017-04-23T01:06:08.635Z,0
2017-04-23T01:06:49.108Z,0
2017-04-23T01:07:29.597Z,0
2017-04-23T01:08:10.084Z,0
2017-04-23T01:08:50.574Z,0
2017-04-23T01:09:31.111Z,0
2017-04-23T01:10:11.603Z,0
2017-04-23T01:10:52.078Z,0
2017-04-23T01:11:32.585Z,0
2017-04-23T01:12:13.092Z,0
2017-04-23T01:12:53.588Z,0
2017-04-23T01:13:34.071Z,0
2017-04-23T01:14:14.584Z,0
2017-04-23T01:14:55.081Z,0
2017-04-23T01:15:35.610Z,0
2017-04-23T01:16:16.079Z,0
2017-04-23T01:16:56.594Z,0
2017-04-23T01:17:37.061Z,0
2017-04-23T01:18:17.524Z,0
2017-04-23T01:18:58.020Z,0
2017-04-23T01:19:38.526Z,0
2017-04-23T01:20:19.011Z,0
2017-04-23T01:20:59.512Z,0
2017-04-23T01:21:39.954Z,0
2017-04-23T01:22:20.441Z,0
2017-04-23T01:23:00.963Z,0
2017-04-23T01:23:41.463Z,0
2017-04-23T01:24:21.937Z,0
2017-04-23T01:25:02.454Z,0
2017-04-23T01:25:42.925Z,0
2017-04-23T01:26:23.429Z,0
2017-04-23T01:27:03.942Z,0
2017-04-23T01:27:44.454Z,0
2017-04-23T01:28:24.955Z,0
2017-04-23T01:29:05.467Z,0
2017-04-23T01:29:45.908Z,0
2017-04-23T01:30:26.405Z,0
2017-04-23T01:31:06.925Z,0
2017-04-23T01:31:47.475Z,0
2017-04-23T01:32:27.891Z,0
2017-04-23T01:33:08.438Z,0
2017-04-23T01:33:48.906Z,0
2017-04-23T01:34:29.460Z,0
2017-04-23T01:35:09.933Z,0
2017-04-23T01:35:50.416Z,0
2017-04-23T01:36:30.905Z,0
2017-04-23T01:37:11.425Z,0
2017-04-23T01:37:51.955Z,0
2017-04-23T01:38:32.588Z,0
2017-04-23T01:39:13.113Z,0
2017-04-23T01:39:53.589Z,0
2017-04-23T01:40:34.127Z,0
2017-04-23T01:41:14.581Z,0
2017-04-23T01:41:55.073Z,0
2017-04-23T01:42:35.587Z,0
2017-04-23T01:43:16.092Z,0
2017-04-23T01:43:56.554Z,0
2017-04-23T01:44:37.049Z,0
2017-04-23T01:45:17.562Z,0
2017-04-23T01:45:58.013Z,0
2017-04-23T01:46:38.519Z,0
2017-04-23T01:47:19.007Z,0
2017-04-23T01:47:59.474Z,0
2017-04-23T01:48:40.007Z,0
2017-04-23T01:49:20.475Z,0
2017-04-23T01:50:00.981Z,0
2017-04-23T01:50:41.449Z,0
2017-04-23T01:51:21.924Z,0
2017-04-23T01:52:02.413Z,0
2017-04-23T01:52:42.908Z,0
2017-04-23T01:53:23.441Z,0
2017-04-23T01:54:03.916Z,0
2017-04-23T01:54:44.401Z,0
2017-04-23T01:55:24.951Z,0
2017-04-23T01:56:05.409Z,0
2017-04-23T01:56:45.896Z,0
2017-04-23T01:57:26.411Z,0
2017-04-23T01:58:06.947Z,0
2017-04-23T01:58:47.395Z,0
2017-04-23T01:59:27.935Z,0
2017-04-23T02:00:08.410Z,0
2017-04-23T02:00:48.924Z,0
2017-04-23T02:01:29.415Z,0
2017-04-23T02:02:09.857Z,0
2017-04-23T02:02:50.395Z,0
2017-04-23T02:03:30.880Z,0
2017-04-23T02:04:11.317Z,0
2017-04-23T02:04:51.853Z,0
2017-04-23T02:05:32.314Z,0
2017-04-23T02:06:12.815Z,0
2017-04-23T02:06:53.310Z,0
2017-04-23T02:07:33.787Z,0
2017-04-23T02:08:14.307Z,0
2017-04-23T02:08:54.844Z,0
2017-04-23T02:09:35.308Z,0
2017-04-23T02:10:15.815Z,0
2017-04-23T02:10:56.305Z,0
2017-04-23T02:11:36.820Z,0
2017-04-23T02:12:17.314Z,0
2017-04-23T02:12:57.914Z,0
2017-04-23T02:13:38.370Z,0
2017-04-23T02:14:18.893Z,0
2017-04-23T02:14:59.394Z,0
2017-04-23T02:15:39.858Z,0
2017-04-23T02:16:20.361Z,0
2017-04-23T02:17:00.847Z,0
2017-04-23T02:17:41.395Z,0
2017-04-23T02:18:21.873Z,0
2017-04-23T02:19:02.409Z,0
2017-04-23T02:19:42.893Z,0
2017-04-23T02:20:23.384Z,0
2017-04-23T02:21:03.862Z,0
2017-04-23T02:21:44.378Z,0
2017-04-23T02:22:24.857Z,0
2017-04-23T02:23:05.364Z,0
2017-04-23T02:23:45.836Z,0
2017-04-23T02:24:26.315Z,0
2017-04-23T02:25:06.831Z,0
2017-04-23T02:25:47.313Z,0
2017-04-23T02:26:27.792Z,0
2017-04-23T02:27:08.286Z,0
2017-04-23T02:27:48.783Z,0
2017-04-23T02:28:29.313Z,0
2017-04-23T02:29:09.755Z,0
2017-04-23T02:29:50.269Z,0
2017-04-23T02:30:30.764Z,0
2017-04-23T02:31:11.205Z,0
2017-04-23T02:31:51.735Z,0
2017-04-23T02:32:32.198Z,0
2017-04-23T02:33:12.724Z,0
2017-04-23T02:33:53.210Z,0
2017-04-23T02:34:33.685Z,0
2017-04-23T02:35:14.205Z,0
2017-04-23T02:35:54.733Z,0
2017-04-23T02:36:35.207Z,0
2017-04-23T02:37:15.743Z,0
2017-04-23T02:37:56.243Z,0
2017-04-23T02:38:36.734Z,0
2017-04-23T02:39:17.249Z,0
2017-04-23T02:39:57.688Z,0
2017-04-23T02:40:38.247Z,0
2017-04-23T02:41:18.717Z,0
2017-04-23T02:41:59.209Z,0
2017-04-23T02:42:39.704Z,0
2017-04-23T02:43:20.170Z,0
2017-04-23T02:44:00.650Z,0
2017-04-23T02:44:41.112Z,0
2017-04-23T02:45:21.639Z,0
2017-04-23T02:46:02.084Z,0
2017-04-23T02:46:42.607Z,0
2017-04-23T02:47:23.100Z,0
2017-04-23T02:48:03.614Z,0
2017-04-23T02:48:44.128Z,0
2017-04-23T02:49:24.587Z,0
2017-04-23T02:50:05.088Z,0
2017-04-23T02:50:45.578Z,0
2017-04-23T02:51:26.085Z,0
2017-04-23T02:52:06.589Z,0
2017-04-23T02:52:47.084Z,0
2017-04-23T02:53:27.560Z,0
2017-04-23T02:54:08.065Z,0
2017-04-23T02:54:48.604Z,0
2017-04-23T02:55:29.133Z,0
2017-04-23T02:56:09.584Z,0
2017-04-23T02:56:50.102Z,0
2017-04-23T02:57:30.611Z,0
2017-04-23T02:58:11.099Z,0
2017-04-23T02:58:51.628Z,0
2017-04-23T02:59:32.125Z,0
2017-04-23T03:00:12.587Z,0
2017-04-23T03:00:53.071Z,0
2017-04-23T03:01:33.587Z,0
2017-04-23T03:02:14.093Z,0
2017-04-23T03:02:54.560Z,0
2017-04-23T03:03:35.027Z,0
2017-04-23T03:04:15.555Z,0
2017-04-23T03:04:56.015Z,0
2017-04-23T03:05:36.542Z,0
2017-04-23T03:06:16.993Z,0
2017-04-23T03:06:57.481Z,0
2017-04-23T03:07:38.011Z,0
2017-04-23T03:08:18.529Z,0
2017-04-23T03:08:59.021Z,0
2017-04-23T03:09:39.547Z,0
2017-04-23T03:10:19.981Z,0
2017-04-23T03:11:00.472Z,0
2017-04-23T03:11:40.990Z,0
2017-04-23T03:12:21.476Z,0
2017-04-23T03:13:01.947Z,0
2017-04-23T03:13:42.496Z,0
2017-04-23T03:14:22.939Z,0
2017-04-23T03:15:03.473Z,0
2017-04-23T03:15:43.938Z,0
2017-04-23T03:16:24.499Z,0
2017-04-23T03:17:04.926Z,0
2017-04-23T03:17:45.392Z,0
2017-04-23T03:18:25.900Z,0
2017-04-23T03:19:06.431Z,0
2017-04-23T03:19:46.904Z,0
2017-04-23T03:20:27.371Z,0
2017-04-23T03:21:07.860Z,0
2017-04-23T03:21:48.415Z,0
2017-04-23T03:22:28.874Z,0
2017-04-23T03:23:09.400Z,0
2017-04-23T03:23:49.841Z,0
2017-04-23T03:24:30.361Z,0
2017-04-23T03:25:10.845Z,0
2017-04-23T03:25:51.331Z,0
2017-04-23T03:26:31.869Z,0
2017-04-23T03:27:12.309Z,0
2017-04-23T03:27:52.804Z,0
2017-04-23T03:28:33.267Z,0
2017-04-23T03:29:13.767Z,0
2017-04-23T03:29:54.263Z,0
2017-04-23T03:30:34.742Z,0
2017-04-23T03:31:15.264Z,0
2017-04-23T03:31:55.746Z,0
2017-04-23T03:32:36.256Z,0
2017-04-23T03:33:16.725Z,0
2017-04-23T03:33:57.237Z,0
2017-04-23T03:34:37.684Z,0
2017-04-23T03:35:18.180Z,0
2017-04-23T03:35:58.694Z,0
2017-04-23T03:36:39.206Z,0
2017-04-23T03:37:19.756Z,0
2017-04-23T03:38:00.233Z,0
2017-04-23T03:38:40.729Z,0
2017-04-23T03:39:21.255Z,0
2017-04-23T03:40:01.756Z,0
2017-04-23T03:40:42.239Z,0
2017-04-23T03:41:22.743Z,0
2017-04-23T03:42:03.226Z,0
2017-04-23T03:42:43.711Z,0
2017-04-23T03:43:24.258Z,0
2017-04-23T03:44:04.765Z,0
2017-04-23T03:44:45.257Z,0
2017-04-23T03:45:25.757Z,0
2017-04-23T03:46:06.247Z,4
2017-04-23T03:46:46.744Z,4
2017-04-23T03:47:27.216Z,4
2017-04-23T03:48:07.742Z,0
2017-04-23T03:48:48.237Z,0
2017-04-23T03:49:28.687Z,4
2017-04-23T03:50:09.225Z,4
2017-04-23T03:50:49.717Z,0
2017-04-23T03:51:30.187Z,4
2017-04-23T03:52:10.671Z,4
2017-04-23T03:52:51.161Z,4
2017-04-23T03:53:31.625Z,4
2017-04-23T03:54:12.135Z,4
2017-04-23T03:54:52.664Z,8
2017-04-23T03:55:33.133Z,4
2017-04-23T03:56:13.641Z,4
2017-04-23T03:56:54.121Z,8
2017-04-23T03:57:34.627Z,12
2017-04-23T03:58:15.079Z,12
2017-04-23T03:58:55.651Z,12
2017-04-23T03:59:36.124Z,12
2017-04-23T04:00:16.632Z,16
2017-04-23T04:00:57.117Z,20
2017-04-23T04:01:37.571Z,20
2017-04-23T04:02:18.066Z,20
2017-04-23T04:02:58.540Z,24
2017-04-23T04:03:39.098Z,24
2017-04-23T04:04:19.571Z,28
2017-04-23T04:05:00.093Z,32
2017-04-23T04:05:40.576Z,32
2017-04-23T04:06:21.102Z,36
2017-04-23T04:07:01.575Z,40
2017-04-23T04:07:42.076Z,44
2017-04-23T04:08:22.586Z,48
2017-04-23T04:09:03.145Z,52
2017-04-23T04:09:43.637Z,56
2017-04-23T04:10:24.119Z,64
2017-04-23T04:11:04.644Z,68
2017-04-23T04:11:45.204Z,76
2017-04-23T04:12:25.745Z,80
2017-04-23T04:13:06.145Z,88
2017-04-23T04:13:46.658Z,92
2017-04-23T04:14:27.121Z,100
2017-04-23T04:15:07.641Z,108
2017-04-23T04:15:48.106Z,116
2017-04-23T04:16:28.632Z,124
2017-04-23T04:17:09.075Z,132
2017-04-23T04:17:49.611Z,144
2017-04-23T04:18:30.056Z,156
2017-04-23T04:19:10.589Z,160
2017-04-23T04:19:51.048Z,172
2017-04-23T04:20:31.542Z,184
2017-04-23T04:21:12.037Z,192
2017-04-23T04:21:52.567Z,204
2017-04-23T04:22:33.053Z,212
2017-04-23T04:23:13.538Z,228
2017-04-23T04:23:54.008Z,240
2017-04-23T04:24:34.509Z,256
2017-04-23T04:25:14.942Z,272
2017-04-23T04:25:55.525Z,288
2017-04-23T04:26:35.993Z,304
2017-04-23T04:27:16.475Z,320
2017-04-23T04:27:57.022Z,340
2017-04-23T04:28:37.477Z,356
2017-04-23T04:29:17.963Z,376
2017-04-23T04:29:58.463Z,396
2017-04-23T04:30:38.956Z,412
2017-04-23T04:31:19.485Z,428
2017-04-23T04:31:59.956Z,448
2017-04-23T04:32:40.471Z,464
2017-04-23T04:33:20.965Z,488
2017-04-23T04:34:01.446Z,508
2017-04-23T04:34:41.911Z,532
2017-04-23T04:35:22.469Z,548
2017-04-23T04:36:02.949Z,572
2017-04-23T04:36:43.415Z,600
2017-04-23T04:37:23.895Z,628
2017-04-23T04:38:04.345Z,648
2017-04-23T04:38:44.835Z,664
2017-04-23T04:39:25.330Z,680
2017-04-23T04:40:05.846Z,696
2017-04-23T04:40:46.298Z,716
2017-04-23T04:41:26.799Z,740
2017-04-23T04:42:07.312Z,768
2017-04-23T04:42:47.751Z,792
2017-04-23T04:43:28.281Z,816
2017-04-23T04:44:08.746Z,832
2017-04-23T04:44:49.283Z,852
2017-04-23T04:45:29.710Z,872
2017-04-23T04:46:10.191Z,892
2017-04-23T04:46:50.719Z,908
2017-04-23T04:47:31.207Z,924
2017-04-23T04:48:11.651Z,944
2017-04-23T04:48:52.129Z,960
2017-04-23T04:49:32.681Z,984
2017-04-23T04:50:13.186Z,1000
2017-04-23T04:50:53.641Z,1024
2017-04-23T04:51:34.228Z,1044
2017-04-23T04:52:14.688Z,1072
2017-04-23T04:52:55.192Z,1100
2017-04-23T04:53:35.714Z,1128
2017-04-23T04:54:16.185Z,1152
2017-04-23T04:54:56.650Z,1180
2017-04-23T04:55:37.146Z,1228
2017-04-23T04:56:17.595Z,1280
2017-04-23T04:56:58.093Z,1324
2017-04-23T04:57:38.586Z,1360
2017-04-23T04:58:19.031Z,1384
2017-04-23T04:58:59.567Z,1412
2017-04-23T04:59:40.030Z,1452
2017-04-23T05:00:20.579Z,1488
2017-04-23T05:01:01.029Z,1524
2017-04-23T05:01:41.542Z,1564
2017-04-23T05:02:22.016Z,1596
2017-04-23T05:03:02.526Z,1624
2017-04-23T05:03:43.025Z,1664
2017-04-23T05:04:23.482Z,1700
2017-04-23T05:05:04.017Z,1728
2017-04-23T05:05:44.495Z,1752
2017-04-23T05:06:24.956Z,1788
2017-04-23T05:07:05.475Z,1856
2017-04-23T05:07:45.991Z,1896
2017-04-23T05:08:26.442Z,1928
2017-04-23T05:09:06.956Z,1956
2017-04-23T05:09:47.455Z,1988
2017-04-23T05:10:27.918Z,2016
2017-04-23T05:11:08.415Z,2048
2017-04-23T05:11:48.884Z,2072
2017-04-23T05:12:29.389Z,2092
2017-04-23T05:13:09.910Z,2108
2017-04-23T05:13:50.371Z,2124
2017-04-23T05:14:30.869Z,2132
2017-04-23T05:15:11.377Z,2120
2017-04-23T05:15:51.871Z,2116
2017-04-23T05:16:32.368Z,2124
2017-04-23T05:17:12.905Z,2160
2017-04-23T05:17:53.345Z,2208
2017-04-23T05:18:33.829Z,2248
2017-04-23T05:19:14.333Z,2264
2017-04-23T05:19:54.852Z,2268
2017-04-23T05:20:35.340Z,2276
2017-04-23T05:21:15.848Z,2280
2017-04-23T05:21:56.347Z,2296
2017-04-23T05:22:36.903Z,2308
2017-04-23T05:23:17.361Z,2320
2017-04-23T05:23:57.869Z,2324
2017-04-23T05:24:38.368Z,2332
2017-04-23T05:25:18.831Z,2336
2017-04-23T05:25:59.336Z,2344
2017-04-23T05:26:39.846Z,2356
2017-04-23T05:27:20.358Z,2376
2017-04-23T05:28:00.838Z,2396
2017-04-23T05:28:41.283Z,2432
2017-04-23T05:29:21.892Z,2472
2017-04-23T05:30:02.386Z,2508
2017-04-23T05:30:42.831Z,2528
2017-04-23T05:31:23.296Z,2544
2017-04-23T05:32:03.783Z,2560
2017-04-23T05:32:44.285Z,2596
2017-04-23T05:33:24.800Z,2648
2017-04-23T05:34:05.313Z,2720
2017-04-23T05:34:45.802Z,2812
2017-04-23T05:35:26.294Z,2960
2017-04-23T05:37:25.473Z,3352
2017-04-23T05:38:05.982Z,3440
2017-04-23T05:38:46.538Z,3576
2017-04-23T05:39:26.990Z,3712
2017-04-23T05:40:07.457Z,3840
2017-04-23T05:40:47.969Z,3924
2017-04-23T05:41:28.496Z,4004
2017-04-23T05:42:08.980Z,4088
2017-04-23T05:42:49.506Z,4232
2017-04-23T05:43:29.996Z,4288
2017-04-23T05:44:10.595Z,4220
2017-04-23T05:44:51.076Z,4104
2017-04-23T05:45:31.615Z,4012
2017-04-23T05:46:14.008Z,3948
2017-04-23T05:46:54.522Z,3840
2017-04-23T05:47:34.961Z,3772
2017-04-23T05:48:15.470Z,3816
2017-04-23T05:48:55.962Z,3856
2017-04-23T05:49:36.450Z,3856
2017-04-23T05:50:17.101Z,3840
2017-04-23T05:50:57.580Z,3824
2017-04-23T05:51:38.052Z,3756
2017-04-23T05:52:18.560Z,3724
2017-04-23T05:52:59.040Z,3664
2017-04-23T05:53:39.487Z,3616
2017-04-23T05:54:20.037Z,3568
2017-04-23T05:55:00.544Z,3528
2017-04-23T05:55:41.018Z,3492
2017-04-23T05:56:21.507Z,3484
2017-04-23T05:57:02.008Z,3496
2017-04-23T05:57:42.527Z,3504
2017-04-23T05:58:23.006Z,3512
2017-04-23T05:59:03.551Z,3488
2017-04-23T05:59:44.028Z,3516
2017-04-23T06:00:24.535Z,3548
2017-04-23T06:01:05.029Z,3588
2017-04-23T06:01:45.512Z,3644
2017-04-23T06:02:26.028Z,3720
2017-04-23T06:03:06.506Z,3800
2017-04-23T06:03:46.993Z,3884
2017-04-23T06:04:27.463Z,3956
2017-04-23T06:05:07.982Z,4008
2017-04-23T06:05:48.486Z,4068
2017-04-23T06:06:28.965Z,3948
2017-04-23T06:07:09.468Z,4004
2017-04-23T06:07:50.292Z,3920
2017-04-23T06:08:30.767Z,4052
2017-04-23T06:09:11.226Z,4040
2017-04-23T06:09:51.689Z,4004
2017-04-23T06:10:32.211Z,3992
2017-04-23T06:11:12.717Z,3956
2017-04-23T06:11:53.237Z,3956
2017-04-23T06:12:33.734Z,3944
2017-04-23T06:13:14.215Z,3936
2017-04-23T06:13:54.676Z,3844
2017-04-23T06:14:35.191Z,3784
2017-04-23T06:15:15.678Z,3872
2017-04-23T06:15:56.255Z,3972
2017-04-23T06:16:36.771Z,4000
2017-04-23T06:17:17.267Z,3992
2017-04-23T06:17:57.738Z,4040
2017-04-23T06:18:38.415Z,4044
2017-04-23T06:19:18.857Z,4052
2017-04-23T06:19:59.286Z,4056
2017-04-23T06:20:39.803Z,4064
2017-04-23T06:21:20.332Z,4016
2017-04-23T06:22:00.767Z,3980
2017-04-23T06:22:41.469Z,4088
2017-04-23T06:23:21.798Z,4084
2017-04-23T06:24:02.394Z,4076
2017-04-23T06:24:43.023Z,4064
2017-04-23T06:25:23.603Z,4060
2017-04-23T06:26:04.367Z,4056
2017-04-23T06:26:44.836Z,4052
2017-04-23T06:27:25.333Z,4072
2017-04-23T06:28:05.812Z,4104
2017-04-23T06:28:46.364Z,4132
2017-04-23T06:29:26.796Z,4180
2017-04-23T06:30:07.308Z,4252
2017-04-23T06:30:47.765Z,4304
2017-04-23T06:31:28.431Z,4272
2017-04-23T06:32:09.328Z,4280
2017-04-23T06:32:49.882Z,4292
2017-04-23T06:33:30.390Z,4524
2017-04-23T06:34:11.361Z,4636
2017-04-23T06:34:51.974Z,4760
2017-04-23T06:35:32.504Z,4852
2017-04-23T06:36:12.943Z,4916
2017-04-23T06:36:53.414Z,5144
2017-04-23T06:37:33.961Z,5248
2017-04-23T06:38:14.394Z,5400
2017-04-23T06:38:54.976Z,5540
2017-04-23T06:39:35.446Z,5612
2017-04-23T06:40:15.956Z,5640
2017-04-23T06:40:56.391Z,5708
2017-04-23T06:41:36.910Z,5768
2017-04-23T06:42:17.448Z,5896
2017-04-23T06:42:57.953Z,5752
2017-04-23T06:43:38.437Z,5904
2017-04-23T06:44:18.906Z,5992
2017-04-23T06:44:59.466Z,6044
2017-04-23T06:45:39.886Z,6128
2017-04-23T06:46:20.347Z,6208
2017-04-23T06:47:00.869Z,6180
2017-04-23T06:47:41.333Z,6136
2017-04-23T06:48:21.819Z,6212
2017-04-23T06:49:02.386Z,6272
2017-04-23T06:49:42.815Z,6312
2017-04-23T06:50:23.308Z,6276
2017-04-23T06:51:03.846Z,5932
2017-04-23T06:51:44.334Z,6180
2017-04-23T06:52:24.857Z,6380
2017-04-23T06:53:05.321Z,6388
2017-04-23T06:53:45.781Z,6372
2017-04-23T06:54:26.365Z,6336
2017-04-23T06:55:06.823Z,6328
2017-04-23T06:55:47.286Z,6332
2017-04-23T06:56:27.787Z,6372
2017-04-23T06:57:08.278Z,6392
2017-04-23T06:57:48.742Z,6404
2017-04-23T06:58:29.294Z,6408
2017-04-23T06:59:09.731Z,6420
2017-04-23T06:59:50.274Z,6408
2017-04-23T07:00:30.786Z,6348
2017-04-23T07:01:11.324Z,6336
2017-04-23T07:01:51.763Z,6280
2017-04-23T07:02:32.249Z,6164
2017-04-23T07:03:12.800Z,6200
2017-04-23T07:03:53.267Z,6336
2017-04-23T07:04:33.766Z,6432
2017-04-23T07:05:14.283Z,6452
2017-04-23T07:05:54.766Z,6640
2017-04-23T07:06:35.249Z,6676
2017-04-23T07:07:15.759Z,6660
2017-04-23T07:07:56.230Z,6656
2017-04-23T07:09:53.922Z,6636
2017-04-23T07:10:34.435Z,6644
2017-04-23T07:11:14.968Z,3676
2017-04-23T07:11:55.490Z,3756
2017-04-23T07:12:36.007Z,4808
2017-04-23T07:13:16.540Z,6908
2017-04-23T07:13:57.064Z,7084
2017-04-23T07:14:37.580Z,7076
2017-04-23T07:15:18.090Z,6996
2017-04-23T07:15:58.625Z,4824
2017-04-23T07:16:39.138Z,4120
2017-04-23T07:17:19.633Z,3460
2017-04-23T07:18:00.164Z,3412
2017-04-23T07:18:40.734Z,3476
2017-04-23T07:19:21.289Z,5808
2017-04-23T07:20:01.788Z,5700
2017-04-23T07:20:42.319Z,3576
2017-04-23T07:21:22.845Z,6288
2017-04-23T07:22:03.364Z,6260
2017-04-23T07:22:43.867Z,6168
2017-04-23T07:23:24.389Z,6364
2017-04-23T07:24:04.910Z,6256
2017-04-23T07:24:45.437Z,6240
2017-04-23T07:25:25.959Z,6392
2017-04-23T07:26:06.475Z,5712
2017-04-23T07:26:46.995Z,5856
2017-04-23T07:27:27.527Z,6328
2017-04-23T07:28:08.042Z,6632
2017-04-23T07:28:48.635Z,6460
2017-04-23T07:29:29.328Z,6380
2017-04-23T07:30:09.767Z,6380
2017-04-23T07:30:50.234Z,6120
2017-04-23T07:31:30.739Z,6028
2017-04-23T07:32:11.264Z,6140
2017-04-23T07:32:51.795Z,5916
2017-04-23T07:33:32.306Z,4472
2017-04-23T07:34:12.822Z,5604
2017-04-23T07:34:53.319Z,6532
2017-04-23T07:35:33.848Z,6196
2017-04-23T07:36:14.365Z,5600
2017-04-23T07:36:54.899Z,5696
2017-04-23T07:37:35.393Z,5416
2017-04-23T07:38:15.937Z,3976
2017-04-23T07:38:56.410Z,3684
2017-04-23T07:39:36.901Z,3564
2017-04-23T07:40:17.410Z,5052
2017-04-23T07:40:57.942Z,3756
2017-04-23T07:41:38.461Z,3896
2017-04-23T07:42:18.995Z,4744
2017-04-23T07:42:59.503Z,6108
2017-04-23T07:43:40.027Z,6052
2017-04-23T07:44:20.540Z,5812
2017-04-23T07:45:01.101Z,5004
2017-04-23T07:45:41.577Z,5200
2017-04-23T07:46:22.796Z,5928
2017-04-23T07:47:03.503Z,6072
2017-04-23T07:47:44.095Z,5848
2017-04-23T07:48:24.535Z,5908
2017-04-23T07:49:05.097Z,4948
2017-04-23T07:49:45.588Z,5656
2017-04-23T07:50:30.434Z,5708
2017-04-23T07:52:04.604Z,5868
2017-04-23T07:52:52.767Z,5992
2017-04-23T07:53:33.294Z,5848
2017-04-23T07:54:13.759Z,5624
2017-04-23T07:54:54.287Z,5496
2017-04-23T07:55:34.756Z,5384
2017-04-23T07:56:15.290Z,5224
2017-04-23T07:56:55.835Z,5132
2017-04-23T07:57:36.378Z,5148
2017-04-23T07:58:16.858Z,5188
2017-04-23T07:58:57.375Z,5136
2017-04-23T07:59:37.887Z,5348
2017-04-23T08:00:18.409Z,5492
2017-04-23T08:00:58.966Z,5448
2017-04-23T08:01:39.459Z,5180
2017-04-23T08:02:19.980Z,4928
2017-04-23T08:03:00.490Z,4696
2017-04-23T08:03:41.007Z,4576
2017-04-23T08:04:21.525Z,4588
2017-04-23T08:05:02.062Z,4592
2017-04-23T08:05:42.571Z,4468
2017-04-23T08:06:23.057Z,4516
2017-04-23T08:07:03.577Z,3872
2017-04-23T08:07:44.042Z,4664
2017-04-23T08:08:24.556Z,3772
2017-04-23T08:09:05.066Z,3496
2017-04-23T08:09:45.602Z,3264
2017-04-23T08:10:26.122Z,3152
2017-04-23T08:11:06.626Z,3164
2017-04-23T08:11:47.340Z,3204
2017-04-23T08:12:27.891Z,3244
2017-04-23T08:13:08.344Z,3308
2017-04-23T08:13:48.801Z,3292
2017-04-23T08:14:29.342Z,3504
2017-04-23T08:15:09.780Z,3540
2017-04-23T08:15:50.326Z,3604
2017-04-23T08:16:31.080Z,3544
2017-04-23T08:17:11.619Z,3524
2017-04-23T08:17:52.141Z,3536
2017-04-23T08:18:32.887Z,3568
2017-04-23T08:19:13.678Z,4408
2017-04-23T08:19:54.269Z,4112
2017-04-23T08:20:34.789Z,4488
2017-04-23T08:21:15.296Z,4520
2017-04-23T08:21:55.838Z,4512
2017-04-23T08:22:36.378Z,4508
2017-04-23T08:23:18.532Z,4444
2017-04-23T08:23:59.995Z,4400
2017-04-23T08:24:40.451Z,4400
2017-04-23T08:25:20.985Z,4360
2017-04-23T08:26:01.631Z,4328
2017-04-23T08:26:42.191Z,4340
2017-04-23T08:27:22.742Z,4388
2017-04-23T08:28:03.448Z,4428
2017-04-23T08:28:44.062Z,4532
2017-04-23T08:29:25.069Z,4632
2017-04-23T08:30:05.589Z,4708
2017-04-23T08:30:46.207Z,4828
2017-04-23T08:31:26.582Z,5020
2017-04-23T08:32:07.110Z,5176
2017-04-23T08:32:47.559Z,5276
2017-04-23T08:33:28.051Z,5328
2017-04-23T08:34:08.550Z,5288
2017-04-23T08:34:49.088Z,5168
2017-04-23T08:35:29.825Z,5116
2017-04-23T08:36:10.347Z,5080
2017-04-23T08:36:50.775Z,4984
2017-04-23T08:37:31.375Z,4896
2017-04-23T08:38:12.155Z,4820
2017-04-23T08:38:52.622Z,4840
2017-04-23T08:39:33.129Z,4932
2017-04-23T08:40:14.012Z,5052
2017-04-23T08:40:54.621Z,5124
2017-04-23T08:41:35.080Z,5224
2017-04-23T08:42:15.822Z,5412
2017-04-23T08:42:56.207Z,5664
2017-04-23T08:43:36.753Z,5592
2017-04-23T08:44:17.326Z,5976
2017-04-23T08:44:57.779Z,6144
2017-04-23T08:45:38.258Z,6340
2017-04-23T08:46:18.802Z,6400
2017-04-23T08:46:59.290Z,6416
2017-04-23T08:47:39.860Z,6456
2017-04-23T08:48:20.336Z,6516
2017-04-23T08:49:00.849Z,6600
2017-04-23T08:49:41.532Z,6692
2017-04-23T08:50:21.900Z,6760
2017-04-23T08:51:02.473Z,6852
2017-04-23T08:51:44.788Z,6848
2017-04-23T08:55:17.406Z,5756
2017-04-23T08:55:58.001Z,4932
2017-04-23T08:56:38.522Z,4976
2017-04-23T08:57:19.338Z,4640
2017-04-23T08:57:59.817Z,4208
2017-04-23T08:58:40.303Z,4072
2017-04-23T08:59:20.855Z,3944
2017-04-23T09:00:02.630Z,3892
2017-04-23T09:00:43.317Z,3820
2017-04-23T09:01:24.369Z,3856
2017-04-23T09:02:04.745Z,4492
2017-04-23T09:02:45.250Z,4312
2017-04-23T09:03:25.715Z,3864
2017-04-23T09:04:06.246Z,3848
2017-04-23T09:04:46.763Z,4124
2017-04-23T09:05:27.296Z,4692
2017-04-23T09:06:07.813Z,4752
2017-04-23T09:06:48.354Z,4436
2017-04-23T09:07:28.915Z,4848
2017-04-23T09:08:09.455Z,4460
2017-04-23T09:08:49.943Z,5140
2017-04-23T09:09:30.436Z,5148
2017-04-23T09:10:10.968Z,4780
2017-04-23T09:10:51.523Z,5184
2017-04-23T09:11:31.960Z,4740
2017-04-23T09:12:12.492Z,4328
2017-04-23T09:12:53.009Z,4960
2017-04-23T09:13:33.491Z,4936
2017-04-23T09:14:14.014Z,4376
2017-04-23T09:14:54.528Z,4340
2017-04-23T09:15:35.069Z,4304
2017-04-23T09:16:15.549Z,4472
2017-04-23T09:16:56.089Z,4768
2017-04-23T09:17:36.600Z,4620
2017-04-23T09:18:17.125Z,4504
2017-04-23T09:18:57.642Z,4564
2017-04-23T09:19:38.230Z,4660
2017-04-23T09:20:18.750Z,4740
2017-04-23T09:20:59.665Z,4888
2017-04-23T09:21:40.264Z,5028
2017-04-23T09:22:20.772Z,5080
2017-04-23T09:23:01.311Z,5148
2017-04-23T09:23:41.879Z,5892
2017-04-23T09:24:22.515Z,6016
2017-04-23T09:25:03.111Z,5996
2017-04-23T09:25:43.574Z,5780
2017-04-23T09:26:24.030Z,5736
2017-04-23T09:27:04.591Z,5924
2017-04-23T09:27:45.125Z,5516
2017-04-23T09:28:25.574Z,5736
2017-04-23T09:29:06.177Z,5684
2017-04-23T09:29:46.639Z,5724
2017-04-23T09:30:27.218Z,5716
2017-04-23T09:31:07.709Z,5668
2017-04-23T09:31:48.211Z,5576
2017-04-23T09:32:28.676Z,5428
2017-04-23T09:33:09.209Z,5328